createdAt,value
2023-03-26T00:00:30.606Z,98311.39
2023-03-26T00:01:39.968Z,98308.05
2023-03-26T00:02:43.755Z,98310.90
2023-03-26T00:03:48.970Z,98305.56
2023-03-26T00:04:56.051Z,98304.08
2023-03-26T00:06:07.747Z,98314.75
2023-03-26T00:07:13.667Z,98305.91
2023-03-26T00:08:18.948Z,98291.92
2023-03-26T00:09:25.179Z,98299.92
2023-03-26T00:10:30.844Z,98303.59
2023-03-26T00:11:39.104Z,98297.41
2023-03-26T00:12:51.220Z,98309.91
2023-03-26T00:13:54.840Z,98299.09
2023-03-26T01:15:07.593Z,98276.46
2023-03-26T01:17:37.041Z,98269.18
2023-03-26T01:18:39.739Z,98274.40
2023-03-26T01:21:09.195Z,98266.86
2023-03-26T01:22:17.218Z,98273.56
2023-03-26T01:23:23.721Z,98277.06
2023-03-26T01:24:27.784Z,98269.56
2023-03-26T01:25:34.970Z,98256.23
2023-03-26T01:28:12.006Z,98252.34
2023-03-26T01:29:24.725Z,98251.89
2023-03-26T01:30:40.116Z,98258.89
2023-03-26T01:31:52.686Z,98247.05
2023-03-26T01:34:30.277Z,98246.32
2023-03-26T01:35:48.478Z,98253.03
2023-03-26T01:36:56.421Z,98250.18
2023-03-26T01:39:30.053Z,98249.80
2023-03-26T01:40:37.716Z,98259.36
2023-03-26T01:41:50.970Z,98249.53
2023-03-26T01:43:15.182Z,98256.69
2023-03-26T01:44:36.451Z,98250.37
2023-03-26T01:45:41.928Z,98246.52
2023-03-26T01:46:45.155Z,98248.00
2023-03-26T01:47:47.961Z,98246.17
2023-03-26T01:48:53.476Z,98247.02
2023-03-26T01:49:57.972Z,98250.33
2023-03-26T01:51:01.447Z,98244.80
2023-03-26T01:52:07.095Z,98249.98
2023-03-26T01:53:11.332Z,98241.80
2023-03-26T01:55:33.500Z,98237.73
2023-03-26T01:56:48.936Z,98242.82
2023-03-26T01:58:00.824Z,98245.14
2023-03-26T01:59:29.476Z,98251.12
2023-03-26T02:00:33.067Z,98245.78
2023-03-26T02:01:48.258Z,98245.44
2023-03-26T02:02:54.516Z,98241.10
2023-03-26T02:04:07.411Z,98240.27
2023-03-26T02:06:49.811Z,98242.38
2023-03-26T02:08:12.231Z,98237.78
2023-03-26T02:09:17.677Z,98235.95
2023-03-26T02:11:37.704Z,98232.55
2023-03-26T02:12:41.331Z,98232.27
2023-03-26T02:13:45.606Z,98229.44
2023-03-26T02:14:48.494Z,98230.27
2023-03-26T02:17:08.926Z,98230.33
2023-03-26T02:18:11.156Z,98226.77
2023-03-26T02:19:14.536Z,98230.92
2023-03-26T02:20:20.983Z,98230.73
2023-03-26T02:21:24.828Z,98238.58
2023-03-26T02:22:27.520Z,98228.74
2023-03-26T02:23:29.805Z,98229.55
2023-03-26T02:24:32.049Z,98226.72
2023-03-26T02:25:34.439Z,98228.55
2023-03-26T02:26:37.156Z,98222.22
2023-03-26T02:27:41.300Z,98225.69
2023-03-26T02:28:45.569Z,98232.70
2023-03-26T02:29:49.704Z,98224.70
2023-03-26T02:30:54.989Z,98238.88
2023-03-26T02:31:58.154Z,98236.85
2023-03-26T02:33:00.428Z,98243.02
2023-03-26T02:34:04.487Z,98247.37
2023-03-26T02:35:09.360Z,98248.17
2023-03-26T02:36:13.311Z,98249.66
2023-03-26T02:37:17.220Z,98250.33
2023-03-26T02:38:19.702Z,98253.84
2023-03-26T02:41:32.945Z,98258.63
2023-03-26T02:45:55.479Z,98261.11
2023-03-26T02:47:15.063Z,98259.28
2023-03-26T02:48:17.254Z,98266.28
2023-03-26T02:49:24.368Z,98262.59
2023-03-26T02:50:27.065Z,98265.27
2023-03-26T02:51:47.776Z,98267.77
2023-03-26T02:52:51.910Z,98263.08
2023-03-26T02:53:54.323Z,98271.09
2023-03-26T02:54:58.339Z,98268.26
2023-03-26T02:56:01.673Z,98269.90
2023-03-26T02:57:05.709Z,98264.41
2023-03-26T02:58:10.527Z,98276.72
2023-03-26T02:59:15.605Z,98274.73
2023-03-26T03:00:18.704Z,98279.88
2023-03-26T03:01:23.415Z,98281.36
2023-03-26T03:02:27.611Z,98279.33
2023-03-26T03:03:31.712Z,98291.49
2023-03-26T03:04:52.381Z,98286.16
2023-03-26T03:05:56.161Z,98288.47
2023-03-26T03:07:15.334Z,98289.50
2023-03-26T03:08:22.772Z,98299.98
2023-03-26T03:09:40.765Z,98295.67
2023-03-26T03:11:05.516Z,98309.02
2023-03-26T03:12:15.635Z,98305.52
2023-03-26T03:13:17.915Z,98315.16
2023-03-26T03:14:21.425Z,98314.36
2023-03-26T03:15:24.782Z,98308.19
2023-03-26T03:16:27.828Z,98315.36
2023-03-26T03:17:30.492Z,98316.35
2023-03-26T03:18:33.044Z,98319.02
2023-03-26T03:19:35.800Z,98324.36
2023-03-26T03:20:37.979Z,98333.20
2023-03-26T03:21:41.269Z,98345.72
2023-03-26T03:22:43.790Z,98335.04
2023-03-26T03:23:46.477Z,98344.88
2023-03-26T03:24:49.522Z,98330.73
2023-03-26T03:25:51.649Z,98330.53
2023-03-26T03:26:53.871Z,98327.03
2023-03-26T03:28:10.313Z,98341.22
2023-03-26T03:29:13.289Z,98335.04
2023-03-26T03:30:16.601Z,98330.73
2023-03-26T03:31:22.415Z,98345.91
2023-03-26T03:32:24.764Z,98340.72
2023-03-26T03:33:29.189Z,98338.05
2023-03-26T03:34:31.287Z,98349.76
2023-03-26T03:35:33.590Z,98353.91
2023-03-26T03:36:36.362Z,98355.09
2023-03-26T03:37:40.876Z,98355.09
2023-03-26T03:38:44.211Z,98361.27
2023-03-26T03:39:48.017Z,98375.61
2023-03-26T03:40:51.930Z,98374.77
2023-03-26T03:41:54.967Z,98382.78
2023-03-26T03:42:57.671Z,98375.77
2023-03-26T03:44:01.814Z,98386.63
2023-03-26T03:45:07.791Z,98385.80
2023-03-26T03:46:28.115Z,98387.63
2023-03-26T03:47:30.303Z,98388.31
2023-03-26T03:48:32.525Z,98391.13
2023-03-26T03:49:35.604Z,98392.16
2023-03-26T03:50:38.047Z,98396.66
2023-03-26T03:52:00.260Z,98396.81
2023-03-26T03:53:04.305Z,98394.15
2023-03-26T03:54:06.859Z,98389.84
2023-03-26T03:55:11.325Z,98388.34
2023-03-26T03:56:27.540Z,98389.34
2023-03-26T03:57:34.236Z,98387.52
2023-03-26T03:58:38.244Z,98395.52
2023-03-26T03:59:47.903Z,98394.87
2023-03-26T04:00:50.693Z,98395.21
2023-03-26T04:03:17.668Z,98400.17
2023-03-26T04:04:20.257Z,98401.88
2023-03-26T04:05:39.366Z,98405.39
2023-03-26T04:06:41.818Z,98410.54
2023-03-26T04:07:45.454Z,98403.56
2023-03-26T04:09:02.516Z,98406.88
2023-03-26T04:10:07.689Z,98412.86
2023-03-26T04:12:23.449Z,98410.00
2023-03-26T04:13:33.424Z,98410.73
2023-03-26T04:14:37.827Z,98417.89
2023-03-26T04:15:43.439Z,98414.23
2023-03-26T04:16:46.330Z,98423.08
2023-03-26T04:17:48.555Z,98419.56
2023-03-26T04:18:52.047Z,98419.56
2023-03-26T04:19:54.102Z,98419.56
2023-03-26T04:20:57.949Z,98415.41
2023-03-26T04:22:02.101Z,98415.22
2023-03-26T04:23:06.973Z,98418.88
2023-03-26T04:24:09.592Z,98420.75
2023-03-26T04:25:33.403Z,98428.56
2023-03-26T04:26:40.397Z,98423.23
2023-03-26T04:27:45.313Z,98423.23
2023-03-26T04:30:12.499Z,98423.84
2023-03-26T04:31:20.417Z,98431.76
2023-03-26T04:32:28.308Z,98432.59
2023-03-26T04:33:33.114Z,98431.58
2023-03-26T04:34:36.215Z,98441.25
2023-03-26T04:35:43.213Z,98433.25
2023-03-26T04:36:47.964Z,98435.73
2023-03-26T04:37:51.247Z,98432.23
2023-03-26T04:38:56.653Z,98435.73
2023-03-26T04:40:02.012Z,98437.22
2023-03-26T04:41:13.034Z,98439.39
2023-03-26T04:42:31.260Z,98444.70
2023-03-26T04:43:35.321Z,98450.01
2023-03-26T04:44:43.715Z,98450.97
2023-03-26T04:45:47.734Z,98452.77
2023-03-26T04:46:50.909Z,98462.59
2023-03-26T04:47:58.766Z,98462.71
2023-03-26T04:49:04.151Z,98458.04
2023-03-26T04:50:09.389Z,98459.63
2023-03-26T04:51:13.879Z,98465.12
2023-03-26T04:52:16.947Z,98467.09
2023-03-26T04:53:37.198Z,98459.19
2023-03-26T04:54:58.088Z,98474.16
2023-03-26T04:56:05.812Z,98468.77
2023-03-26T04:57:32.298Z,98464.70
2023-03-26T04:58:36.173Z,98472.70
2023-03-26T04:59:38.236Z,98464.13
2023-03-26T05:00:42.770Z,98467.93
2023-03-26T05:01:45.129Z,98468.02
2023-03-26T05:02:49.009Z,98469.15
2023-03-26T05:03:51.921Z,98472.95
2023-03-26T05:04:55.226Z,98472.23
2023-03-26T05:05:59.202Z,98473.36
2023-03-26T05:07:01.846Z,98471.80
2023-03-26T05:08:12.994Z,98471.24
2023-03-26T05:09:15.517Z,98470.55
2023-03-26T05:10:57.191Z,98472.51
2023-03-26T05:13:13.875Z,98481.45
2023-03-26T05:14:36.215Z,98477.60
2023-03-26T05:15:58.779Z,98476.31
2023-03-26T05:17:28.436Z,98484.81
2023-03-26T05:18:49.418Z,98487.77
2023-03-26T05:19:57.461Z,98494.77
2023-03-26T05:21:00.381Z,98500.39
2023-03-26T05:22:03.012Z,98495.19
2023-03-26T05:23:07.001Z,98497.97
2023-03-26T05:24:11.019Z,98490.59
2023-03-26T05:25:15.354Z,98487.91
2023-03-26T05:26:18.862Z,98488.08
2023-03-26T05:27:21.579Z,98497.13
2023-03-26T05:28:23.820Z,98508.89
2023-03-26T05:29:27.840Z,98507.22
2023-03-26T05:30:30.548Z,98512.78
2023-03-26T05:31:35.074Z,98513.15
2023-03-26T05:32:38.020Z,98512.69
2023-03-26T05:33:41.950Z,98516.73
2023-03-26T05:34:45.930Z,98520.63
2023-03-26T05:36:03.543Z,98514.89
2023-03-26T05:37:07.577Z,98511.38
2023-03-26T05:38:17.316Z,98516.73
2023-03-26T05:39:20.361Z,98519.98
2023-03-26T05:41:00.789Z,98517.21
2023-03-26T05:42:03.583Z,98523.50
2023-03-26T05:43:07.595Z,98514.73
2023-03-26T05:44:11.509Z,98519.17
2023-03-26T05:45:15.392Z,98519.06
2023-03-26T05:46:18.057Z,98516.95
2023-03-26T05:47:20.629Z,98521.19
2023-03-26T05:48:23.839Z,98519.08
2023-03-26T05:49:26.202Z,98508.09
2023-03-26T05:50:29.440Z,98528.19
2023-03-26T05:51:34.429Z,98520.72
2023-03-26T05:52:38.549Z,98526.59
2023-03-26T05:54:01.273Z,98526.95
2023-03-26T05:56:23.832Z,98519.77
2023-03-26T05:57:44.282Z,98521.92
2023-03-26T05:59:04.891Z,98519.41
2023-03-26T06:00:25.833Z,98511.77
2023-03-26T06:01:29.021Z,98509.45
2023-03-26T06:02:39.176Z,98508.97
2023-03-26T06:03:49.281Z,98515.32
2023-03-26T06:04:53.394Z,98513.84
2023-03-26T06:06:12.817Z,98509.04
2023-03-26T06:07:18.105Z,98519.09
2023-03-26T06:08:22.840Z,98521.45
2023-03-26T06:09:27.181Z,98524.31
2023-03-26T06:10:31.828Z,98523.83
2023-03-26T06:11:34.056Z,98534.72
2023-03-26T06:12:38.091Z,98535.08
2023-03-26T06:13:42.254Z,98536.91
2023-03-26T06:14:45.185Z,98536.07
2023-03-26T06:15:51.883Z,98530.92
2023-03-26T06:16:56.264Z,98531.91
2023-03-26T06:17:58.542Z,98532.95
2023-03-26T06:19:12.465Z,98527.59
2023-03-26T06:20:17.022Z,98534.78
2023-03-26T06:21:20.955Z,98543.80
2023-03-26T06:22:33.708Z,98536.61
2023-03-26T06:23:43.505Z,98541.97
2023-03-26T06:24:48.173Z,98555.14
2023-03-26T06:25:52.328Z,98544.45
2023-03-26T06:27:01.172Z,98558.84
2023-03-26T06:28:22.610Z,98554.49
2023-03-26T06:29:41.727Z,98555.33
2023-03-26T06:30:52.231Z,98557.66
2023-03-26T06:32:18.853Z,98557.01
2023-03-26T06:33:16.038Z,98556.17
2023-03-26T06:34:20.520Z,98558.20
2023-03-26T06:35:23.079Z,98556.52
2023-03-26T06:36:25.868Z,98546.02
2023-03-26T06:37:28.193Z,98555.69
2023-03-26T06:38:32.100Z,98554.84
2023-03-26T06:39:36.098Z,98559.20
2023-03-26T06:40:42.747Z,98557.52
2023-03-26T06:41:52.949Z,98550.34
2023-03-26T06:43:09.173Z,98553.84
2023-03-26T06:44:03.105Z,98542.96
2023-03-26T06:45:12.829Z,98549.98
2023-03-26T06:46:19.519Z,98546.13
2023-03-26T06:47:41.057Z,98547.80
2023-03-26T06:49:03.762Z,98546.41
2023-03-26T06:51:36.629Z,98542.98
2023-03-26T06:53:51.080Z,98546.65
2023-03-26T06:54:55.450Z,98549.93
2023-03-26T06:57:31.203Z,98563.66
2023-03-26T06:58:38.593Z,98556.22
2023-03-26T06:59:59.132Z,98550.52
2023-03-26T07:01:21.785Z,98551.00
2023-03-26T07:02:42.447Z,98551.29
2023-03-26T07:04:03.409Z,98557.12
2023-03-26T07:05:23.894Z,98554.94
2023-03-26T07:07:50.515Z,98554.63
2023-03-26T07:10:17.583Z,98547.25
2023-03-26T07:11:38.460Z,98551.16
2023-03-26T07:12:59.218Z,98549.00
2023-03-26T07:14:17.185Z,98552.80
2023-03-26T07:16:39.969Z,98553.48
2023-03-26T07:19:52.487Z,98551.72
2023-03-26T07:22:00.774Z,98563.55
2023-03-26T07:23:18.789Z,98555.33
2023-03-26T07:24:36.014Z,98556.64
2023-03-26T07:25:48.094Z,98553.60
2023-03-26T07:27:24.651Z,98549.73
2023-03-26T07:29:04.717Z,98549.37
2023-03-26T07:30:17.075Z,98553.69
2023-03-26T07:31:40.631Z,98551.29
2023-03-26T07:33:08.555Z,98556.28
2023-03-26T07:34:35.789Z,98555.08
2023-03-26T07:36:21.330Z,98556.39
2023-03-26T07:39:35.545Z,98551.33
2023-03-26T07:41:04.066Z,98546.59
2023-03-26T07:42:17.016Z,98549.91
2023-03-26T07:43:57.765Z,98545.87
2023-03-26T07:46:30.367Z,98543.27
2023-03-26T07:48:49.376Z,98547.32
2023-03-26T07:51:03.838Z,98546.12
2023-03-26T07:54:42.127Z,98551.31
2023-03-26T07:58:51.444Z,98549.28
2023-03-26T07:59:58.811Z,98556.66
2023-03-26T08:03:19.721Z,98556.48
2023-03-26T08:04:54.052Z,98553.17
2023-03-26T08:07:48.528Z,98558.09
2023-03-26T08:09:23.198Z,98557.27
2023-03-26T08:10:36.866Z,98558.52
2023-03-26T08:11:44.513Z,98558.55
2023-03-26T08:12:53.007Z,98557.51
2023-03-26T08:14:28.962Z,98566.63
2023-03-26T08:17:09.309Z,98561.02
2023-03-26T08:18:42.000Z,98563.91
2023-03-26T08:19:56.969Z,98572.00
2023-03-26T08:24:08.517Z,98567.66
2023-03-26T08:25:20.633Z,98577.18
2023-03-26T08:27:57.803Z,98574.25
2023-03-26T08:29:06.900Z,98582.14
2023-03-26T08:30:18.815Z,98567.22
2023-03-26T08:32:55.233Z,98568.20
2023-03-26T08:33:57.246Z,98565.93
2023-03-26T08:34:59.423Z,98569.65
2023-03-26T08:36:01.408Z,98570.26
2023-03-26T08:37:03.464Z,98561.13
2023-03-26T08:38:05.774Z,98568.80
2023-03-26T08:39:07.740Z,98565.08
2023-03-26T08:40:11.917Z,98558.84
2023-03-26T08:41:17.751Z,98559.69
2023-03-26T08:42:38.790Z,98565.69
2023-03-26T08:44:04.588Z,98562.34
2023-03-26T08:45:40.442Z,98566.47
2023-03-26T08:47:04.449Z,98563.30
2023-03-26T08:48:26.880Z,98564.11
2023-03-26T08:50:48.969Z,98562.16
2023-03-26T08:52:05.467Z,98571.31
2023-03-26T08:53:40.850Z,98564.05
2023-03-26T08:55:16.063Z,98566.50
2023-03-26T08:58:16.122Z,98561.52
2023-03-26T08:59:40.496Z,98565.92
2023-03-26T09:04:02.030Z,98574.86
2023-03-26T09:05:28.446Z,98564.25
2023-03-26T09:06:34.349Z,98566.66
2023-03-26T09:07:44.007Z,98567.91
2023-03-26T09:09:09.550Z,98561.41
2023-03-26T09:10:38.306Z,98563.84
2023-03-26T09:12:02.235Z,98566.05
2023-03-26T09:13:35.194Z,98568.52
2023-03-26T09:14:52.148Z,98566.41
2023-03-26T09:16:18.748Z,98565.38
2023-03-26T09:17:45.709Z,98571.67
2023-03-26T09:18:58.655Z,98566.98
2023-03-26T09:22:00.510Z,98567.27
2023-03-26T09:24:40.853Z,98569.48
2023-03-26T09:25:47.763Z,98574.39
2023-03-26T09:28:50.501Z,98561.88
2023-03-26T09:29:59.984Z,98575.69
2023-03-26T09:31:07.902Z,98573.19
2023-03-26T09:32:44.411Z,98568.86
2023-03-26T09:34:18.967Z,98567.42
2023-03-26T09:35:54.972Z,98571.39
2023-03-26T09:37:18.205Z,98562.05
2023-03-26T09:38:32.894Z,98568.94
2023-03-26T09:44:13.929Z,98555.28
2023-03-26T09:45:37.059Z,98560.17
2023-03-26T09:46:43.430Z,98563.31
2023-03-26T09:49:36.507Z,98552.16
2023-03-26T09:50:54.240Z,98550.98
2023-03-26T09:52:26.499Z,98554.58
2023-03-26T09:53:53.339Z,98555.43
2023-03-26T09:55:11.904Z,98556.50
2023-03-26T09:58:10.487Z,98545.13
2023-03-26T09:59:36.126Z,98545.42
2023-03-26T10:00:50.534Z,98542.73
2023-03-26T10:02:12.955Z,98544.02
2023-03-26T10:03:21.860Z,98545.48
2023-03-26T10:04:37.426Z,98547.75
2023-03-26T10:05:56.365Z,98547.34
2023-03-26T10:07:36.014Z,98546.53
2023-03-26T10:10:37.251Z,98554.61
2023-03-26T10:11:46.556Z,98554.19
2023-03-26T10:13:14.938Z,98548.98
2023-03-26T10:16:17.783Z,98544.86
2023-03-26T10:17:37.851Z,98552.47
2023-03-26T10:19:06.500Z,98547.71
2023-03-26T10:20:35.226Z,98551.63
2023-03-26T10:22:56.765Z,98549.30
2023-03-26T10:24:14.563Z,98546.00
2023-03-26T10:25:38.518Z,98555.74
2023-03-26T10:27:08.768Z,98552.83
2023-03-26T10:28:24.383Z,98546.43
2023-03-26T10:29:30.543Z,98554.50
2023-03-26T10:31:12.200Z,98552.83
2023-03-26T10:32:50.739Z,98552.44
2023-03-26T10:35:47.291Z,98557.38
2023-03-26T10:37:01.260Z,98559.83
2023-03-26T10:38:27.150Z,98567.28
2023-03-26T10:40:00.597Z,98564.77
2023-03-26T10:41:25.368Z,98563.97
2023-03-26T10:43:00.184Z,98567.24
2023-03-26T10:44:12.166Z,98563.31
2023-03-26T10:46:58.776Z,98556.05
2023-03-26T10:48:26.011Z,98566.53
2023-03-26T10:49:47.126Z,98561.37
2023-03-26T10:51:06.923Z,98562.60
2023-03-26T10:52:13.883Z,98563.84
2023-03-26T10:53:39.528Z,98567.94
2023-03-26T10:54:58.159Z,98555.91
2023-03-26T10:57:44.200Z,98563.97
2023-03-26T10:58:49.683Z,98573.38
2023-03-26T10:59:54.626Z,98569.23
2023-03-26T11:01:05.929Z,98575.84
2023-03-26T11:02:31.062Z,98576.23
2023-03-26T11:03:43.359Z,98576.62
2023-03-26T11:05:04.487Z,98575.16
2023-03-26T11:06:28.509Z,98580.09
2023-03-26T11:07:39.629Z,98578.63
2023-03-26T11:08:50.246Z,98588.75
2023-03-26T11:09:57.287Z,98572.17
2023-03-26T11:11:06.209Z,98576.72
2023-03-26T11:12:26.223Z,98574.63
2023-03-26T11:13:43.621Z,98576.69
2023-03-26T11:15:06.250Z,98567.34
2023-03-26T11:16:15.580Z,98572.92
2023-03-26T11:17:40.708Z,98565.25
2023-03-26T11:18:41.420Z,98570.17
2023-03-26T11:21:18.854Z,98569.41
2023-03-26T11:23:00.884Z,98557.28
2023-03-26T11:24:13.208Z,98559.78
2023-03-26T11:25:31.284Z,98564.11
2023-03-26T11:26:43.841Z,98563.66
2023-03-26T11:29:52.501Z,98557.12
2023-03-26T11:31:15.489Z,98566.11
2023-03-26T11:32:25.868Z,98562.41
2023-03-26T11:33:36.666Z,98568.41
2023-03-26T11:34:42.360Z,98565.16
2023-03-26T11:35:51.272Z,98563.20
2023-03-26T11:36:55.710Z,98563.34
2023-03-26T11:39:18.117Z,98564.30
2023-03-26T11:40:26.962Z,98560.81
2023-03-26T11:41:29.675Z,98566.23
2023-03-26T11:42:43.846Z,98563.78
2023-03-26T11:43:49.111Z,98560.26
2023-03-26T11:44:57.036Z,98557.97
2023-03-26T11:46:01.866Z,98565.61
2023-03-26T11:47:09.372Z,98559.39
2023-03-26T11:48:27.499Z,98563.71
2023-03-26T11:49:30.302Z,98563.48
2023-03-26T11:50:35.871Z,98556.84
2023-03-26T11:51:39.473Z,98564.47
2023-03-26T11:53:55.035Z,98551.45
2023-03-26T11:54:56.973Z,98554.48
2023-03-26T11:57:24.174Z,98546.65
2023-03-26T11:58:38.777Z,98552.33
2023-03-26T11:59:57.152Z,98551.50
2023-03-26T12:00:57.026Z,98539.10
2023-03-26T12:02:11.994Z,98544.48
2023-03-26T12:03:16.787Z,98543.64
2023-03-26T12:04:38.210Z,98542.59
2023-03-26T12:07:15.541Z,98537.52
2023-03-26T12:08:21.745Z,98547.35
2023-03-26T12:09:26.510Z,98538.45
2023-03-26T12:10:40.874Z,98534.74
2023-03-26T12:11:45.894Z,98537.22
2023-03-26T12:12:54.362Z,98537.22
2023-03-26T12:14:02.432Z,98531.84
2023-03-26T12:15:16.048Z,98527.91
2023-03-26T12:16:22.030Z,98527.91
2023-03-26T12:17:36.064Z,98525.40
2023-03-26T12:18:43.189Z,98530.16
2023-03-26T12:19:45.809Z,98524.77
2023-03-26T12:20:48.199Z,98527.19
2023-03-26T12:21:52.218Z,98526.78
2023-03-26T12:23:00.134Z,98524.66
2023-03-26T12:24:28.289Z,98525.89
2023-03-26T12:25:33.093Z,98528.79
2023-03-26T12:26:38.876Z,98528.17
2023-03-26T12:27:49.855Z,98531.24
2023-03-26T12:28:51.863Z,98529.57
2023-03-26T12:31:22.960Z,98530.04
2023-03-26T12:32:39.110Z,98535.55
2023-03-26T12:33:33.508Z,98533.04
2023-03-26T12:34:37.597Z,98533.25
2023-03-26T12:35:40.426Z,98536.95
2023-03-26T12:36:56.624Z,98539.46
2023-03-26T12:38:31.538Z,98537.78
2023-03-26T12:40:09.016Z,98544.39
2023-03-26T12:40:44.156Z,98542.30
2023-03-26T12:44:44.991Z,98538.95
2023-03-26T12:44:48.504Z,98531.58
2023-03-26T12:47:55.222Z,98523.52
2023-03-26T12:47:58.983Z,98527.14
2023-03-26T12:48:59.519Z,98523.88
2023-03-26T12:50:01.944Z,98521.61
2023-03-26T12:51:08.567Z,98522.89
2023-03-26T12:52:17.424Z,98518.98
2023-03-26T12:53:43.215Z,98520.44
2023-03-26T12:54:52.308Z,98519.22
2023-03-26T12:56:00.132Z,98516.97
2023-03-26T12:58:57.627Z,98511.48
2023-03-26T13:00:20.220Z,98514.08
2023-03-26T13:01:29.328Z,98509.98
2023-03-26T13:03:09.922Z,98513.50
2023-03-26T13:04:18.981Z,98514.34
2023-03-26T13:05:59.343Z,98510.81
2023-03-26T13:07:20.885Z,98515.14
2023-03-26T13:08:41.624Z,98513.11
2023-03-26T13:10:19.463Z,98516.48
2023-03-26T13:11:40.539Z,98511.02
2023-03-26T13:12:55.258Z,98516.70
2023-03-26T13:14:18.843Z,98509.29
2023-03-26T13:15:33.702Z,98507.86
2023-03-26T13:19:49.582Z,98515.47
2023-03-26T13:29:12.152Z,98514.55
2023-03-26T13:32:06.969Z,98514.25
2023-03-26T13:33:15.865Z,98516.26
2023-03-26T13:34:21.686Z,98511.27
2023-03-26T13:35:33.282Z,98508.98
2023-03-26T13:38:07.723Z,98506.34
2023-03-26T13:39:20.467Z,98497.15
2023-03-26T13:40:29.193Z,98507.23
2023-03-26T13:41:47.071Z,98504.77
2023-03-26T13:44:44.221Z,98504.60
2023-03-26T13:46:06.455Z,98499.55
2023-03-26T13:47:12.126Z,98501.40
2023-03-26T13:48:17.526Z,98504.09
2023-03-26T13:49:35.819Z,98499.10
2023-03-26T13:50:41.080Z,98498.48
2023-03-26T13:51:50.107Z,98502.00
2023-03-26T13:53:05.484Z,98506.33
2023-03-26T13:54:29.449Z,98503.85
2023-03-26T13:55:47.828Z,98505.70
2023-03-26T13:56:53.635Z,98502.00
2023-03-26T13:58:11.750Z,98502.18
2023-03-26T14:00:34.262Z,98500.17
2023-03-26T14:01:39.734Z,98500.27
2023-03-26T14:02:43.949Z,98502.78
2023-03-26T14:05:10.477Z,98497.70
2023-03-26T14:06:36.821Z,98495.95
2023-03-26T14:07:51.091Z,98497.41
2023-03-26T14:08:58.875Z,98498.03
2023-03-26T14:10:13.014Z,98499.05
2023-03-26T14:12:58.865Z,98496.23
2023-03-26T14:14:10.141Z,98501.70
2023-03-26T14:15:27.587Z,98499.86
2023-03-26T14:16:43.357Z,98503.56
2023-03-26T14:17:51.343Z,98514.30
2023-03-26T14:18:59.990Z,98520.69
2023-03-26T14:20:24.801Z,98510.98
2023-03-26T14:21:39.497Z,98517.38
2023-03-26T14:22:51.658Z,98516.36
2023-03-26T14:24:18.271Z,98514.69
2023-03-26T14:25:50.431Z,98512.22
2023-03-26T14:27:08.256Z,98511.38
2023-03-26T14:28:48.098Z,98513.83
2023-03-26T14:30:06.346Z,98515.05
2023-03-26T14:31:17.153Z,98516.27
2023-03-26T14:34:07.015Z,98510.69
2023-03-26T14:35:13.837Z,98513.00
2023-03-26T14:36:35.863Z,98510.70
2023-03-26T14:39:31.496Z,98510.11
2023-03-26T14:40:49.915Z,98513.91
2023-03-26T14:41:54.732Z,98512.44
2023-03-26T14:43:15.506Z,98512.82
2023-03-26T14:44:48.477Z,98505.36
2023-03-26T14:46:14.212Z,98509.89
2023-03-26T14:47:22.156Z,98507.37
2023-03-26T14:50:07.495Z,98512.61
2023-03-26T14:51:19.288Z,98506.67
2023-03-26T14:52:46.048Z,98506.87
2023-03-26T14:53:50.924Z,98505.20
2023-03-26T14:54:55.569Z,98503.56
2023-03-26T14:56:07.570Z,98500.42
2023-03-26T14:57:30.894Z,98511.36
2023-03-26T14:59:05.819Z,98507.00
2023-03-26T15:00:17.951Z,98512.75
2023-03-26T15:01:27.897Z,98509.61
2023-03-26T15:02:57.182Z,98509.98
2023-03-26T15:04:32.314Z,98505.03
2023-03-26T15:07:24.931Z,98500.34
2023-03-26T15:10:12.741Z,98499.00
2023-03-26T15:12:55.696Z,98497.91
2023-03-26T15:14:16.810Z,98504.34
2023-03-26T15:15:55.219Z,98505.18
2023-03-26T15:17:04.748Z,98504.34
2023-03-26T15:18:14.094Z,98507.03
2023-03-26T15:19:26.643Z,98509.07
2023-03-26T15:21:56.080Z,98507.48
2023-03-26T15:23:13.826Z,98504.16
2023-03-26T15:24:28.705Z,98508.69
2023-03-26T15:25:50.664Z,98515.72
2023-03-26T15:27:25.672Z,98523.30
2023-03-26T15:28:40.616Z,98527.66
2023-03-26T15:30:03.463Z,98524.59
2023-03-26T15:31:11.988Z,98526.44
2023-03-26T15:32:24.031Z,98530.13
2023-03-26T15:33:54.554Z,98523.09
2023-03-26T15:36:28.530Z,98522.22
2023-03-26T15:37:56.966Z,98528.39
2023-03-26T15:39:22.660Z,98520.98
2023-03-26T15:40:46.258Z,98524.14
2023-03-26T15:42:08.165Z,98511.37
2023-03-26T15:43:16.646Z,98513.70
2023-03-26T15:44:25.635Z,98511.03
2023-03-26T15:45:37.602Z,98512.88
2023-03-26T15:46:53.100Z,98509.19
2023-03-26T15:48:15.068Z,98514.55
2023-03-26T15:49:40.873Z,98510.02
2023-03-26T15:51:04.844Z,98522.22
2023-03-26T15:52:27.928Z,98521.38
2023-03-26T15:53:55.473Z,98520.54
2023-03-26T15:56:26.236Z,98514.23
2023-03-26T15:57:46.957Z,98517.94
2023-03-26T15:58:53.322Z,98511.94
2023-03-26T16:00:24.910Z,98511.94
2023-03-26T16:01:52.777Z,98513.78
2023-03-26T16:03:05.193Z,98523.50
2023-03-26T16:04:28.502Z,98522.00
2023-03-26T16:05:52.179Z,98524.24
2023-03-26T16:07:10.121Z,98527.29
2023-03-26T16:08:19.390Z,98530.81
2023-03-26T16:09:25.151Z,98534.86
2023-03-26T16:10:40.485Z,98542.27
2023-03-26T16:11:49.702Z,98536.44
2023-03-26T16:13:12.382Z,98536.80
2023-03-26T16:14:36.075Z,98544.41
2023-03-26T16:15:38.888Z,98535.89
2023-03-26T16:18:12.290Z,98542.53
2023-03-26T16:19:24.304Z,98541.08
2023-03-26T16:20:34.936Z,98545.76
2023-03-26T16:22:57.382Z,98546.70
2023-03-26T16:24:10.315Z,98563.11
2023-03-26T16:25:27.455Z,98557.95
2023-03-26T16:26:33.056Z,98559.99
2023-03-26T16:27:35.171Z,98561.16
2023-03-26T16:30:09.473Z,98567.47
2023-03-26T16:31:36.919Z,98566.59
2023-03-26T16:32:33.213Z,98566.23
2023-03-26T16:33:38.004Z,98573.07
2023-03-26T16:34:57.883Z,98569.19
2023-03-26T16:36:03.730Z,98568.83
2023-03-26T16:37:26.550Z,98563.95
2023-03-26T16:40:15.571Z,98567.66
2023-03-26T16:41:19.724Z,98573.47
2023-03-26T16:42:29.540Z,98578.27
2023-03-26T16:43:38.827Z,98573.58
2023-03-26T16:44:57.838Z,98576.70
2023-03-26T16:46:06.563Z,98582.73
2023-03-26T16:47:27.511Z,98574.50
2023-03-26T16:48:36.354Z,98582.73
2023-03-26T16:50:07.354Z,98580.22
2023-03-26T16:51:44.165Z,98581.61
2023-03-26T16:54:31.217Z,98580.78
2023-03-26T16:55:36.970Z,98586.85
2023-03-26T16:56:52.350Z,98587.21
2023-03-26T16:57:58.768Z,98595.77
2023-03-26T16:59:08.691Z,98589.96
2023-03-26T17:00:25.157Z,98592.31
2023-03-26T17:01:45.568Z,98594.36
2023-03-26T17:03:26.861Z,98602.58
2023-03-26T17:04:31.812Z,98589.55
2023-03-26T17:05:37.194Z,98590.75
2023-03-26T17:06:49.634Z,98602.64
2023-03-26T17:08:15.329Z,98596.62
2023-03-26T17:10:47.929Z,98597.58
2023-03-26T17:11:56.714Z,98602.84
2023-03-26T17:14:46.406Z,98601.45
2023-03-26T17:16:10.682Z,98606.55
2023-03-26T17:17:42.873Z,98600.03
2023-03-26T17:18:51.634Z,98608.70
2023-03-26T17:20:12.356Z,98601.32
2023-03-26T17:21:20.814Z,98605.84
2023-03-26T17:22:45.049Z,98608.52
2023-03-26T17:24:26.446Z,98614.05
2023-03-26T17:25:46.684Z,98610.55
2023-03-26T17:27:04.295Z,98606.35
2023-03-26T17:28:35.090Z,98613.73
2023-03-26T17:29:43.821Z,98616.56
2023-03-26T17:31:17.629Z,98613.05
2023-03-26T17:32:20.575Z,98620.28
2023-03-26T17:33:29.223Z,98618.79